La Grande Rivière Airport
CYGL : now visible

Airfield :











YOU CAN JOIN US ON...

 
LOGIN :

Register | Disclaimer

   EN    FR    IT 

 









Legend :    VFR   Marginal VFR   IFR   Intensive IFR   Very Intensive IFR
Visi :
Ceiling :
>= 8 km
>= 3000ft
5 to 8 km
1000 to 3000 ft
1500m to 5 km
500 to 1000 ft
800 to 1500m
200 to 500 ft
< 800m
< 200 ft
Symbols :   Thunderstorms  Fog  Heavy snow  Heavy precipitations  Wind > 20 kt






- Airport Elevation : 639 ft
- IATA code : YGL


CYGL - La Grande Rivière

CURRENT METAR :
  • 050600Z 22009KT 15SM BKN060 20/12 A2973 RMK SC7 SLP071 DENSITY ALT 1600FT

EXPIRED METARs :
  • 050500Z 18009G15KT 15SM OVC060 20/11 A2974 RMK SC8 SLP076 DENSITY ALT 1600FT
  • 050400Z 17011KT 15SM BKN060 OVC080 20/11 A2976 RMK SC6AC2 SLP081 DENSITY ALT 1600FT

TAF TAF CYGL
Valid from the 05 at 06:00 until the 06 at 06:00 UTC


050539Z 0506/0606 18010KT P6SM OVC060
FM050900 27007KT 4SM -SHRA BR OVC006
TEMPO 0509/0513 P6SM NSW SCT006 OVC050
FM051300 33012KT P6SM -RA BKN006 OVC015
FM051900 35008KT P6SM SCT015 OVC040
BECMG 0520/0522 18005KT
FM060300 11005KT 4SM -RA BR OVC030
FM060500 11005KT 2SM -RA BR OVC004 RMK NXT FCST BY 051200Z
CZUL FIR / North America



MET'MAP, your aeronautical weather chart ! - Copyright ORBIFLY December 2007 - Disclaimer

ORBIFLY MET'MAP TEAM :

Programming & Development : Alexandra Zaïnal
Concept & original design : Baudouin d'Aumeries
Assistance for programming : Marc-Olivier Méhu
Technical & hardware support : Manuel Goepfert

Contact : metmap@orbifly.com




SOURCES & CREDITS :

   NOAA       Earth
Advisory